createdAt,value
2023-01-11T00:02:02.418Z,6.30
2023-01-11T00:04:30.314Z,7.85
2023-01-11T00:06:58.200Z,7.55
2023-01-11T00:09:25.164Z,7.85
2023-01-11T00:11:52.158Z,7.28
2023-01-11T00:14:19.073Z,8.48
2023-01-11T00:16:45.964Z,8.45
2023-01-11T00:19:13.214Z,7.95
2023-01-11T00:21:40.201Z,6.78
2023-01-11T00:24:07.142Z,6.15
2023-01-11T00:26:34.014Z,7.90
2023-01-11T00:29:00.887Z,7.30
2023-01-11T00:31:27.763Z,7.97
2023-01-11T00:33:55.105Z,7.00
2023-01-11T00:36:21.978Z,7.82
2023-01-11T00:38:53.613Z,7.07
2023-01-11T00:41:40.543Z,7.35
2023-01-11T00:44:28.957Z,6.47
2023-01-11T00:47:14.887Z,6.75
2023-01-11T00:49:42.412Z,6.63
2023-01-11T00:52:09.888Z,5.82
2023-01-11T00:54:38.952Z,7.18
2023-01-11T00:57:07.387Z,5.47
2023-01-11T00:59:39.498Z,5.82
2023-01-11T01:04:33.819Z,6.65
2023-01-11T01:07:00.783Z,7.97
2023-01-11T01:09:28.014Z,6.20
2023-01-11T01:11:54.877Z,5.68
2023-01-11T01:14:31.329Z,7.57
2023-01-11T01:17:04.047Z,5.05
2023-01-11T01:19:31.679Z,6.72
2023-01-11T01:21:59.461Z,5.38
2023-01-11T01:24:28.813Z,5.32
2023-01-11T01:26:56.697Z,6.28
2023-01-11T01:29:24.055Z,5.82
2023-01-11T01:31:51.333Z,6.90
2023-01-11T01:34:18.419Z,5.57
2023-01-11T01:36:45.296Z,6.15
2023-01-11T01:39:13.000Z,5.40
2023-01-11T01:41:39.949Z,6.65
2023-01-11T01:44:45.525Z,5.82
2023-01-11T01:47:13.184Z,5.72
2023-01-11T01:49:40.822Z,4.82
2023-01-11T01:52:08.848Z,5.20
2023-01-11T01:54:39.960Z,5.25
2023-01-11T01:57:13.592Z,4.75
2023-01-11T01:59:41.666Z,4.72
2023-01-11T02:02:08.893Z,4.53
2023-01-11T02:04:42.687Z,4.07
2023-01-11T02:07:17.659Z,5.35
2023-01-11T02:09:59.426Z,4.75
2023-01-11T02:12:30.308Z,4.28
2023-01-11T02:15:00.720Z,4.60
2023-01-11T02:17:27.829Z,4.03
2023-01-11T02:20:03.631Z,4.25
2023-01-11T02:22:58.406Z,3.88
2023-01-11T02:25:46.622Z,3.50
2023-01-11T02:28:32.634Z,3.70
2023-01-11T02:31:30.564Z,3.03
2023-01-11T02:34:03.580Z,3.40
2023-01-11T02:36:44.549Z,3.75
2023-01-11T02:39:16.110Z,4.65
2023-01-11T02:42:20.562Z,4.68
2023-01-11T02:45:15.840Z,4.80
2023-01-11T02:47:55.001Z,4.22
2023-01-11T02:50:45.153Z,4.53
2023-01-11T02:53:39.817Z,5.28
2023-01-11T02:56:15.976Z,5.43
2023-01-11T02:58:45.984Z,3.92
2023-01-11T03:01:13.643Z,4.47
2023-01-11T03:03:40.585Z,5.05
2023-01-11T03:06:30.012Z,4.93
2023-01-11T03:09:20.167Z,4.53
2023-01-11T03:12:20.689Z,4.30
2023-01-11T03:14:59.675Z,5.00
2023-01-11T03:17:57.749Z,4.93
2023-01-11T03:20:30.750Z,5.35
2023-01-11T03:23:13.116Z,5.60
2023-01-11T03:28:38.373Z,4.18
2023-01-11T03:31:30.828Z,5.32
2023-01-11T03:34:11.374Z,4.15
2023-01-11T03:36:56.583Z,4.97
2023-01-11T03:39:26.476Z,3.35
2023-01-11T03:41:57.564Z,4.30
2023-01-11T03:44:27.212Z,4.32
2023-01-11T03:47:02.764Z,5.45
2023-01-11T03:49:39.452Z,5.22
2023-01-11T03:52:12.731Z,4.65
2023-01-11T03:54:40.736Z,3.42
2023-01-11T03:57:32.040Z,3.17
2023-01-11T03:59:59.581Z,2.85
2023-01-11T04:02:33.217Z,2.72
2023-01-11T04:05:00.201Z,2.70
2023-01-11T04:07:27.020Z,2.88
2023-01-11T04:09:53.864Z,3.55
2023-01-11T04:12:20.716Z,4.00
2023-01-11T04:14:47.623Z,4.07
2023-01-11T04:17:14.460Z,3.33
2023-01-11T04:19:41.322Z,3.80
2023-01-11T04:22:08.165Z,4.82
2023-01-11T04:24:35.081Z,3.97
2023-01-11T04:27:02.039Z,3.55
2023-01-11T04:29:28.900Z,4.18
2023-01-11T04:31:55.847Z,4.95
2023-01-11T04:34:22.727Z,5.47
2023-01-11T04:36:49.603Z,6.18
2023-01-11T04:39:16.470Z,6.18
2023-01-11T04:42:02.125Z,6.15
2023-01-11T04:44:29.101Z,6.07
2023-01-11T04:46:55.975Z,5.93
2023-01-11T04:49:22.798Z,6.20
2023-01-11T04:51:49.746Z,5.85
2023-01-11T04:54:16.773Z,5.20
2023-01-11T04:56:43.666Z,6.05
2023-01-11T04:59:10.532Z,5.20
2023-01-11T05:01:37.391Z,5.22
2023-01-11T05:04:04.360Z,5.70
2023-01-11T05:06:31.263Z,5.82
2023-01-11T05:08:58.154Z,6.13
2023-01-11T05:11:25.108Z,4.82
2023-01-11T05:13:52.047Z,5.40
2023-01-11T05:16:23.476Z,5.45
2023-01-11T05:18:58.835Z,4.88
2023-01-11T05:21:33.966Z,4.88
2023-01-11T05:24:02.963Z,4.35
2023-01-11T05:26:35.421Z,4.00
2023-01-11T05:29:05.774Z,3.67
2023-01-11T05:31:34.003Z,3.72
2023-01-11T05:34:00.956Z,3.35
2023-01-11T05:36:28.872Z,3.60
2023-01-11T05:38:57.195Z,3.25
2023-01-11T05:41:26.524Z,3.55
2023-01-11T05:44:13.201Z,3.15
2023-01-11T05:46:42.255Z,4.00
2023-01-11T05:49:10.814Z,3.38
2023-01-11T05:51:40.734Z,3.55
2023-01-11T05:54:10.747Z,3.40
2023-01-11T05:56:37.805Z,3.92
2023-01-11T05:59:04.848Z,2.90
2023-01-11T06:01:31.799Z,3.25
2023-01-11T06:03:58.747Z,3.15
2023-01-11T06:06:26.062Z,2.90
2023-01-11T06:08:53.102Z,4.25
2023-01-11T06:11:20.243Z,4.03
2023-01-11T06:13:47.120Z,3.38
2023-01-11T06:16:19.729Z,2.97
2023-01-11T06:18:52.205Z,3.50
2023-01-11T06:21:19.449Z,2.97
2023-01-11T06:23:48.687Z,3.20
2023-01-11T06:26:17.617Z,2.78
2023-01-11T06:28:44.722Z,3.53
2023-01-11T06:31:11.759Z,3.17
2023-01-11T06:33:39.487Z,2.75
2023-01-11T06:36:08.655Z,3.15
2023-01-11T06:38:36.851Z,3.17
2023-01-11T06:41:05.673Z,3.30
2023-01-11T06:43:32.803Z,3.17
2023-01-11T06:46:00.406Z,3.28
2023-01-11T06:48:28.082Z,3.17
2023-01-11T06:50:57.165Z,3.72
2023-01-11T06:53:28.310Z,2.78
2023-01-11T06:55:57.480Z,2.28
2023-01-11T06:58:30.723Z,3.63
2023-01-11T07:00:58.348Z,2.20
2023-01-11T07:03:25.964Z,3.40
2023-01-11T07:05:56.570Z,3.95
2023-01-11T07:08:25.516Z,3.10
2023-01-11T07:10:53.176Z,2.38
2023-01-11T07:13:20.471Z,2.78
2023-01-11T07:15:50.404Z,3.00
2023-01-11T07:18:19.350Z,3.05
2023-01-11T07:20:46.470Z,2.00
2023-01-11T07:23:13.426Z,3.22
2023-01-11T07:25:41.160Z,3.55
2023-01-11T07:28:09.064Z,3.42
2023-01-11T07:30:55.295Z,3.30
2023-01-11T07:33:22.901Z,2.92
2023-01-11T07:35:49.855Z,2.40
2023-01-11T07:38:16.927Z,2.72
2023-01-11T07:40:43.851Z,3.22
2023-01-11T07:43:16.060Z,2.67
2023-01-11T07:48:15.058Z,3.15
2023-01-11T07:50:44.508Z,2.05
2023-01-11T07:53:12.820Z,3.08
2023-01-11T07:55:40.572Z,3.25
2023-01-11T07:58:09.859Z,3.00
2023-01-11T08:00:36.751Z,2.90
2023-01-11T08:03:03.796Z,2.65
2023-01-11T08:05:30.755Z,4.10
2023-01-11T08:07:57.910Z,2.40
2023-01-11T08:10:24.883Z,2.20
2023-01-11T08:13:10.566Z,2.85
2023-01-11T08:15:37.575Z,2.08
2023-01-11T08:18:05.950Z,2.63
2023-01-11T08:20:33.084Z,2.47
2023-01-11T08:23:07.677Z,2.78
2023-01-11T08:25:35.387Z,2.97
2023-01-11T08:28:04.058Z,2.75
2023-01-11T08:30:31.015Z,3.42
2023-01-11T08:33:00.144Z,2.70
2023-01-11T08:35:27.174Z,1.95
2023-01-11T08:37:54.141Z,2.90
2023-01-11T08:40:23.724Z,2.53
2023-01-11T08:42:57.509Z,2.75
2023-01-11T08:45:25.083Z,3.00
2023-01-11T08:47:52.620Z,2.80
2023-01-11T08:50:22.105Z,3.47
2023-01-11T08:52:50.915Z,2.55
2023-01-11T08:55:18.916Z,3.70
2023-01-11T08:57:46.069Z,2.85
2023-01-11T09:00:13.643Z,2.92
2023-01-11T09:02:40.687Z,3.20
2023-01-11T09:05:07.923Z,2.67
2023-01-11T09:07:34.803Z,2.35
2023-01-11T09:10:01.745Z,3.22
2023-01-11T09:12:28.768Z,5.13
2023-01-11T09:14:55.675Z,3.35
2023-01-11T09:17:22.617Z,3.20
2023-01-11T09:19:49.725Z,3.28
2023-01-11T09:22:16.564Z,3.22
2023-01-11T09:24:43.430Z,3.40
2023-01-11T09:27:11.801Z,4.30
2023-01-11T09:29:38.923Z,3.63
2023-01-11T09:32:06.140Z,2.85
2023-01-11T09:34:33.342Z,3.78
2023-01-11T09:37:02.691Z,3.60
2023-01-11T09:39:29.852Z,3.17
2023-01-11T09:42:32.310Z,3.90
2023-01-11T09:45:21.792Z,3.72
2023-01-11T09:48:04.836Z,3.47
2023-01-11T09:50:41.204Z,3.65
2023-01-11T09:53:27.275Z,3.85
2023-01-11T09:55:58.094Z,3.83
2023-01-11T09:58:59.003Z,4.22
2023-01-11T10:01:41.599Z,3.97
2023-01-11T10:04:32.950Z,3.70
2023-01-11T10:07:25.844Z,2.53
2023-01-11T10:18:28.360Z,3.28
2023-01-11T10:19:38.721Z,3.20
2023-01-11T10:22:32.419Z,2.88
2023-01-11T10:25:11.601Z,3.05
2023-01-11T10:27:55.538Z,3.20
2023-01-11T10:30:35.901Z,2.85
2023-01-11T10:33:29.131Z,3.08
2023-01-11T10:36:55.625Z,3.85
2023-01-11T10:39:46.838Z,2.63
2023-01-11T10:42:26.366Z,3.15
2023-01-11T10:44:56.268Z,3.53
2023-01-11T10:47:29.006Z,3.25
2023-01-11T10:50:21.269Z,3.35
2023-01-11T10:53:12.717Z,4.03
2023-01-11T10:56:02.274Z,3.80
2023-01-11T10:58:49.753Z,3.90
2023-01-11T11:01:36.613Z,3.10
2023-01-11T11:04:31.281Z,5.13
2023-01-11T11:07:14.480Z,4.18
2023-01-11T11:09:59.895Z,3.00
2023-01-11T11:12:37.048Z,3.45
2023-01-11T11:15:27.315Z,3.40
2023-01-11T11:17:55.040Z,3.75
2023-01-11T11:20:24.921Z,2.80
2023-01-11T11:22:54.115Z,3.55
2023-01-11T11:25:29.644Z,2.72
2023-01-11T11:28:15.078Z,2.88
2023-01-11T11:30:44.038Z,2.85
2023-01-11T11:33:25.959Z,2.30
2023-01-11T11:35:59.789Z,2.80
2023-01-11T11:38:30.095Z,2.83
2023-01-11T11:41:08.460Z,3.75
2023-01-11T11:43:40.792Z,2.72
2023-01-11T11:46:20.411Z,3.50
2023-01-11T11:49:16.694Z,3.08
2023-01-11T11:51:45.935Z,2.85
2023-01-11T11:54:21.278Z,3.10
2023-01-11T11:56:48.876Z,4.45
2023-01-11T11:59:21.403Z,3.15
2023-01-11T12:01:56.143Z,2.67
2023-01-11T12:04:40.444Z,2.95
2023-01-11T12:07:15.081Z,2.30
2023-01-11T12:10:00.343Z,2.65
2023-01-11T12:12:29.501Z,2.45
2023-01-11T12:15:22.831Z,3.05
2023-01-11T12:17:50.431Z,2.05
2023-01-11T12:20:23.804Z,2.70
2023-01-11T12:23:08.014Z,3.95
2023-01-11T12:25:59.223Z,2.58
2023-01-11T12:28:28.326Z,2.72
2023-01-11T12:31:40.487Z,2.67
2023-01-11T12:34:31.982Z,4.68
2023-01-11T12:37:20.388Z,3.05
2023-01-11T12:40:03.453Z,3.22
2023-01-11T12:43:09.363Z,4.03
2023-01-11T12:45:42.269Z,2.63
2023-01-11T12:48:27.325Z,2.45
2023-01-11T12:51:16.844Z,4.38
2023-01-11T12:53:59.198Z,3.85
2023-01-11T12:56:58.547Z,3.10
2023-01-11T12:59:44.066Z,3.53
2023-01-11T13:02:23.505Z,2.50
2023-01-11T13:05:08.514Z,3.15
2023-01-11T13:07:44.335Z,4.70
2023-01-11T13:10:33.008Z,3.50
2023-01-11T13:13:13.027Z,4.60
2023-01-11T13:15:53.678Z,3.08
2023-01-11T13:18:28.110Z,3.35
2023-01-11T13:21:03.975Z,2.45
2023-01-11T13:23:55.272Z,3.22
2023-01-11T13:26:34.986Z,2.40
2023-01-11T13:29:25.555Z,2.55
2023-01-11T13:31:54.791Z,3.10
2023-01-11T13:34:33.767Z,2.42
2023-01-11T13:37:19.315Z,3.35
2023-01-11T13:39:53.903Z,2.58
2023-01-11T13:42:33.823Z,2.55
2023-01-11T13:45:16.395Z,2.90
2023-01-11T13:47:55.643Z,3.22
2023-01-11T13:50:34.732Z,3.05
2023-01-11T13:53:15.697Z,2.20
2023-01-11T13:56:06.333Z,3.15
2023-01-11T13:58:37.240Z,3.22
2023-01-11T14:01:08.163Z,2.95
2023-01-11T14:03:51.139Z,3.30
2023-01-11T14:06:34.020Z,2.63
2023-01-11T14:09:17.082Z,3.30
2023-01-11T14:12:08.098Z,4.03
2023-01-11T14:14:41.010Z,3.35
2023-01-11T14:17:42.934Z,3.10
2023-01-11T14:20:12.867Z,2.80
2023-01-11T14:23:04.490Z,2.47
2023-01-11T14:25:51.784Z,4.18
2023-01-11T14:28:44.272Z,3.80
2023-01-11T14:31:29.866Z,3.47
2023-01-11T14:33:56.804Z,5.05
2023-01-11T14:36:45.651Z,4.85
2023-01-11T14:39:53.587Z,3.38
2023-01-11T14:42:35.379Z,4.07
2023-01-11T14:45:24.549Z,6.55
2023-01-11T14:48:15.746Z,4.97
2023-01-11T14:51:25.924Z,4.22
2023-01-11T14:54:10.309Z,3.42
2023-01-11T14:56:43.388Z,4.05
2023-01-11T14:59:29.057Z,3.60
2023-01-11T15:02:05.284Z,3.58
2023-01-11T15:04:37.036Z,3.38
2023-01-11T15:07:23.277Z,3.88
2023-01-11T15:09:53.640Z,4.18
2023-01-11T15:12:23.697Z,3.15
2023-01-11T15:14:56.631Z,3.45
2023-01-11T15:17:45.485Z,3.10
2023-01-11T15:20:18.421Z,4.40
2023-01-11T15:22:46.489Z,3.47
2023-01-11T15:25:26.431Z,3.22
2023-01-11T15:27:54.885Z,2.92
2023-01-11T15:30:30.986Z,2.80
2023-01-11T15:33:16.855Z,3.42
2023-01-11T15:35:55.995Z,2.22
2023-01-11T15:38:53.697Z,3.78
2023-01-11T15:41:50.500Z,3.75
2023-01-11T15:44:37.546Z,4.30
2023-01-11T15:47:17.395Z,2.72
2023-01-11T15:49:54.012Z,3.35
2023-01-11T15:52:55.166Z,3.08
2023-01-11T15:55:48.437Z,2.95
2023-01-11T15:58:24.375Z,3.25
2023-01-11T16:01:10.922Z,3.60
2023-01-11T16:04:02.908Z,3.10
2023-01-11T16:06:41.262Z,3.85
2023-01-11T16:09:18.882Z,3.15
2023-01-11T16:12:07.297Z,3.85
2023-01-11T16:15:09.105Z,2.47
2023-01-11T16:17:40.892Z,2.83
2023-01-11T16:20:24.288Z,2.78
2023-01-11T16:22:55.847Z,3.55
2023-01-11T16:25:27.403Z,2.70
2023-01-11T16:27:56.389Z,3.67
2023-01-11T16:30:23.684Z,2.55
2023-01-11T16:32:50.752Z,2.45
2023-01-11T16:35:23.816Z,2.30
2023-01-11T16:37:58.941Z,4.20
2023-01-11T16:40:36.976Z,3.55
2023-01-11T16:43:21.569Z,3.40
2023-01-11T16:45:51.098Z,2.28
2023-01-11T16:48:26.346Z,3.03
2023-01-11T16:51:09.082Z,2.95
2023-01-11T16:53:40.980Z,3.10
2023-01-11T16:56:16.702Z,3.17
2023-01-11T16:58:43.619Z,3.17
2023-01-11T17:01:13.540Z,2.55
2023-01-11T17:03:52.590Z,2.80
2023-01-11T17:06:24.579Z,2.88
2023-01-11T17:08:56.844Z,2.50
2023-01-11T17:14:24.944Z,2.08
2023-01-11T17:17:01.111Z,4.85
2023-01-11T17:19:30.916Z,2.50
2023-01-11T17:22:08.623Z,3.22
2023-01-11T17:24:41.662Z,2.60
2023-01-11T17:27:18.556Z,2.28
2023-01-11T17:29:48.142Z,2.55
2023-01-11T17:32:33.385Z,2.97
2023-01-11T17:35:03.733Z,2.90
2023-01-11T17:37:30.986Z,3.00
2023-01-11T17:39:58.757Z,2.53
2023-01-11T17:42:44.776Z,2.90
2023-01-11T17:45:21.798Z,3.03
2023-01-11T17:47:54.247Z,3.67
2023-01-11T17:50:38.045Z,2.25
2023-01-11T17:53:32.427Z,3.05
2023-01-11T17:56:04.846Z,2.60
2023-01-11T17:58:31.929Z,2.78
2023-01-11T18:01:05.150Z,3.20
2023-01-11T18:03:59.587Z,3.03
2023-01-11T18:06:41.527Z,2.63
2023-01-11T18:09:22.178Z,2.20
2023-01-11T18:11:50.529Z,3.22
2023-01-11T18:14:27.640Z,2.75
2023-01-11T18:17:03.565Z,2.78
2023-01-11T18:19:42.620Z,2.60
2023-01-11T18:22:30.670Z,2.70
2023-01-11T18:25:04.578Z,2.83
2023-01-11T18:27:35.518Z,2.78
2023-01-11T18:30:06.537Z,2.50
2023-01-11T18:32:37.410Z,2.15
2023-01-11T18:35:04.497Z,3.30
2023-01-11T18:37:31.354Z,2.70
2023-01-11T18:39:58.378Z,3.55
2023-01-11T18:42:29.045Z,2.45
2023-01-11T18:44:55.964Z,3.55
2023-01-11T18:47:26.047Z,3.10
2023-01-11T18:49:53.693Z,2.72
2023-01-11T18:52:24.526Z,3.55
2023-01-11T18:54:51.826Z,3.60
2023-01-11T18:57:18.684Z,3.05
2023-01-11T18:59:46.816Z,2.65
2023-01-11T19:02:23.244Z,3.30
2023-01-11T19:04:51.313Z,3.55
2023-01-11T19:07:18.269Z,3.50
2023-01-11T19:09:45.194Z,3.90
2023-01-11T19:12:12.778Z,3.28
2023-01-11T19:14:40.311Z,2.50
2023-01-11T19:17:09.479Z,3.92
2023-01-11T19:19:36.917Z,2.33
2023-01-11T19:22:04.960Z,2.00
2023-01-11T19:24:32.366Z,3.45
2023-01-11T19:26:59.778Z,2.63
2023-01-11T19:29:26.742Z,2.53
2023-01-11T19:31:55.589Z,3.03
2023-01-11T19:34:23.295Z,3.00
2023-01-11T19:36:51.734Z,2.75
2023-01-11T19:39:19.004Z,3.65
2023-01-11T19:42:03.765Z,2.13
2023-01-11T19:44:35.852Z,2.45
2023-01-11T19:47:12.778Z,2.63
2023-01-11T19:49:41.195Z,2.80
2023-01-11T19:52:12.981Z,2.45
2023-01-11T19:54:43.634Z,3.55
2023-01-11T19:57:12.017Z,3.20
2023-01-11T19:59:38.910Z,2.95
2023-01-11T20:02:05.934Z,2.83
2023-01-11T20:04:33.073Z,2.80
2023-01-11T20:06:59.987Z,3.25
2023-01-11T20:09:26.905Z,2.30
2023-01-11T20:11:55.401Z,3.08
2023-01-11T20:14:22.417Z,2.70
2023-01-11T20:16:49.271Z,2.97
2023-01-11T20:19:16.140Z,2.75
2023-01-11T20:21:43.752Z,2.78
2023-01-11T20:24:13.106Z,3.72
2023-01-11T20:26:40.950Z,2.75
2023-01-11T20:29:08.190Z,2.45
2023-01-11T20:31:35.459Z,3.10
2023-01-11T20:34:11.630Z,3.33
2023-01-11T20:36:38.573Z,2.45
2023-01-11T20:39:07.039Z,2.28
2023-01-11T20:41:47.088Z,2.75
2023-01-11T20:44:16.025Z,3.97
2023-01-11T20:46:45.701Z,3.72
2023-01-11T20:49:14.509Z,3.20
2023-01-11T20:51:41.593Z,2.78
2023-01-11T20:54:08.988Z,2.53
2023-01-11T20:56:36.503Z,4.20
2023-01-11T20:59:03.479Z,2.97
2023-01-11T21:01:30.887Z,3.78
2023-01-11T21:04:02.911Z,3.88
2023-01-11T21:06:31.451Z,3.45
2023-01-11T21:09:00.330Z,3.50
2023-01-11T21:11:28.187Z,4.63
2023-01-11T21:13:56.123Z,4.07
2023-01-11T21:16:24.548Z,3.65
2023-01-11T21:18:56.859Z,4.22
2023-01-11T21:23:54.640Z,4.20
2023-01-11T21:26:22.193Z,3.47
2023-01-11T21:28:59.238Z,3.05
2023-01-11T21:31:31.848Z,2.75
2023-01-11T21:33:59.707Z,2.83
2023-01-11T21:36:28.223Z,3.00
2023-01-11T21:38:56.850Z,4.22
2023-01-11T21:42:04.529Z,3.80
2023-01-11T21:44:33.782Z,2.90
2023-01-11T21:47:02.825Z,2.97
2023-01-11T21:49:30.742Z,3.72
2023-01-11T21:51:58.099Z,3.03
2023-01-11T21:54:25.231Z,2.88
2023-01-11T21:56:52.295Z,3.45
2023-01-11T21:59:20.399Z,2.53
2023-01-11T22:01:49.247Z,2.50
2023-01-11T22:04:20.419Z,2.97
2023-01-11T22:06:53.936Z,2.75
2023-01-11T22:09:22.308Z,2.42
2023-01-11T22:11:50.982Z,2.38
2023-01-11T22:14:18.225Z,2.20
2023-01-11T22:16:45.155Z,2.25
2023-01-11T22:19:12.219Z,2.15
2023-01-11T22:21:39.290Z,2.95
2023-01-11T22:24:08.407Z,2.33
2023-01-11T22:26:38.766Z,2.33
2023-01-11T22:29:16.252Z,2.42
2023-01-11T22:31:55.385Z,2.67
2023-01-11T22:34:22.711Z,3.78
2023-01-11T22:36:49.691Z,2.10
2023-01-11T22:39:17.154Z,2.75
2023-01-11T22:41:45.895Z,3.03
2023-01-11T22:44:13.936Z,2.40
2023-01-11T22:46:41.496Z,2.90
2023-01-11T22:49:08.415Z,2.70
2023-01-11T22:51:35.780Z,3.05
2023-01-11T22:54:03.817Z,3.35
2023-01-11T22:56:31.407Z,2.75
2023-01-11T22:58:58.521Z,2.53
2023-01-11T23:01:30.392Z,2.72
2023-01-11T23:03:57.774Z,2.97
2023-01-11T23:06:32.188Z,1.88
2023-01-11T23:08:59.851Z,2.72
2023-01-11T23:11:50.935Z,2.97
2023-01-11T23:14:19.907Z,2.55
2023-01-11T23:16:49.165Z,2.60
2023-01-11T23:19:18.514Z,2.40
2023-01-11T23:21:46.284Z,2.05
2023-01-11T23:24:14.884Z,2.05
2023-01-11T23:26:41.988Z,2.13
2023-01-11T23:29:08.878Z,2.13
2023-01-11T23:31:35.840Z,2.42
2023-01-11T23:34:04.331Z,2.30
2023-01-11T23:36:34.367Z,2.78
2023-01-11T23:39:02.050Z,2.92
2023-01-11T23:41:47.880Z,2.80
2023-01-11T23:44:16.905Z,2.53
2023-01-11T23:47:03.418Z,3.15
2023-01-11T23:49:31.833Z,3.08
2023-01-11T23:51:59.050Z,3.03
2023-01-11T23:54:29.351Z,2.90
2023-01-11T23:56:56.949Z,2.58
2023-01-11T23:59:24.524Z,3.30
